createdAt,value
2018-12-06T00:01:15.738Z,14.47
2018-12-06T00:03:43.278Z,15.70
2018-12-06T00:06:10.791Z,15.17
2018-12-06T00:08:38.344Z,16.63
2018-12-06T00:11:05.816Z,17.33
2018-12-06T00:13:33.398Z,17.77
2018-12-06T00:16:00.813Z,18.30
2018-12-06T00:18:28.310Z,18.90
2018-12-06T00:20:55.851Z,19.80
2018-12-06T00:23:23.367Z,18.63
2018-12-06T00:28:24.570Z,19.07
2018-12-06T00:30:52.051Z,19.17
2018-12-06T00:33:19.528Z,19.97
2018-12-06T00:35:47.096Z,21.23
2018-12-06T00:38:14.608Z,19.50
2018-12-06T00:40:42.949Z,21.40
2018-12-06T00:43:10.438Z,21.83
2018-12-06T00:45:37.925Z,23.07
2018-12-06T00:48:05.385Z,23.73
2018-12-06T00:50:32.781Z,22.83
2018-12-06T00:53:00.342Z,22.23
2018-12-06T00:55:27.725Z,22.20
2018-12-06T00:57:55.193Z,23.30
2018-12-06T01:00:22.605Z,23.10
2018-12-06T01:02:49.997Z,23.37
2018-12-06T01:05:17.905Z,23.93
2018-12-06T01:07:45.403Z,24.97
2018-12-06T01:10:12.825Z,23.17
2018-12-06T01:12:40.222Z,23.53
2018-12-06T01:15:07.701Z,23.30
2018-12-06T01:17:35.105Z,23.50
2018-12-06T01:20:02.511Z,24.80
2018-12-06T01:22:29.959Z,23.97
2018-12-06T01:24:57.360Z,23.27
2018-12-06T01:27:24.774Z,23.03
2018-12-06T01:29:56.532Z,24.83
2018-12-06T01:32:23.966Z,23.23
2018-12-06T01:34:51.500Z,24.17
2018-12-06T01:37:19.005Z,23.03
2018-12-06T01:39:46.429Z,21.73
2018-12-06T01:42:13.885Z,21.07
2018-12-06T01:44:41.358Z,21.03
2018-12-06T01:47:08.738Z,22.73
2018-12-06T01:49:36.189Z,21.03
2018-12-06T01:52:03.709Z,20.03
2018-12-06T01:54:31.347Z,19.87
2018-12-06T01:56:58.801Z,20.57
2018-12-06T01:59:26.253Z,19.53
2018-12-06T02:01:53.735Z,19.37
2018-12-06T02:04:21.206Z,20.30
2018-12-06T02:06:48.710Z,20.63
2018-12-06T02:09:16.122Z,19.10
2018-12-06T02:11:43.579Z,20.50
2018-12-06T02:14:11.031Z,19.97
2018-12-06T02:16:38.494Z,19.20
2018-12-06T02:19:06.003Z,19.80
2018-12-06T02:21:33.591Z,19.70
2018-12-06T02:24:01.092Z,19.70
2018-12-06T02:26:28.493Z,20.23
2018-12-06T02:28:56.556Z,20.70
2018-12-06T02:31:24.049Z,19.50
2018-12-06T02:33:51.558Z,20.63
2018-12-06T02:36:18.983Z,19.70
2018-12-06T02:38:46.509Z,20.13
2018-12-06T02:41:13.936Z,20.70
2018-12-06T02:43:41.395Z,21.47
2018-12-06T02:46:08.838Z,20.33
2018-12-06T02:48:36.578Z,20.23
2018-12-06T02:51:04.018Z,20.63
2018-12-06T02:53:31.615Z,20.93
2018-12-06T02:55:59.100Z,20.17
2018-12-06T02:58:26.968Z,20.27
2018-12-06T03:00:54.459Z,21.17
2018-12-06T03:03:21.898Z,22.00
2018-12-06T03:05:49.292Z,21.70
2018-12-06T03:08:16.696Z,23.50
2018-12-06T03:10:44.333Z,22.83
2018-12-06T03:13:11.803Z,22.43
2018-12-06T03:15:40.320Z,23.43
2018-12-06T03:18:07.863Z,22.17
2018-12-06T03:20:35.418Z,23.77
2018-12-06T03:23:02.916Z,23.27
2018-12-06T03:25:36.993Z,22.67
2018-12-06T03:28:04.425Z,23.20
2018-12-06T03:30:32.672Z,23.47
2018-12-06T03:33:00.264Z,21.57
2018-12-06T03:35:27.671Z,23.33
2018-12-06T03:37:55.109Z,22.30
2018-12-06T03:40:22.686Z,22.23
2018-12-06T03:42:50.183Z,23.10
2018-12-06T03:45:17.600Z,22.13
2018-12-06T03:47:45.056Z,23.13
2018-12-06T03:50:12.454Z,22.20
2018-12-06T03:52:39.903Z,21.77
2018-12-06T03:55:07.371Z,21.90
2018-12-06T03:57:34.826Z,20.53
2018-12-06T04:00:02.259Z,21.17
2018-12-06T04:02:29.893Z,22.03
2018-12-06T04:04:57.311Z,21.07
2018-12-06T04:07:25.266Z,21.37
2018-12-06T04:09:52.763Z,21.83
2018-12-06T04:12:20.147Z,21.50
2018-12-06T04:14:47.603Z,21.43
2018-12-06T04:17:15.240Z,22.27
2018-12-06T04:19:42.773Z,23.20
2018-12-06T04:22:11.071Z,22.37
2018-12-06T04:24:38.609Z,21.53
2018-12-06T04:27:06.087Z,20.87
2018-12-06T04:29:33.733Z,22.17
2018-12-06T04:32:01.172Z,21.33
2018-12-06T04:34:28.630Z,20.00
2018-12-06T04:36:56.051Z,21.03
2018-12-06T04:39:23.444Z,21.77
2018-12-06T04:41:50.896Z,20.20
2018-12-06T04:44:18.317Z,21.20
2018-12-06T04:46:45.841Z,21.87
2018-12-06T04:49:13.362Z,21.00
2018-12-06T04:51:40.805Z,20.67
2018-12-06T04:54:08.355Z,20.73
2018-12-06T04:56:35.795Z,21.63
2018-12-06T04:59:03.269Z,20.53
2018-12-06T05:01:30.801Z,20.23
2018-12-06T05:03:58.280Z,19.60
2018-12-06T05:06:25.717Z,19.93
2018-12-06T05:08:53.133Z,19.40
2018-12-06T05:11:20.622Z,20.37
2018-12-06T05:13:48.150Z,18.90
2018-12-06T05:16:15.530Z,19.23
2018-12-06T05:18:42.932Z,18.93
2018-12-06T05:21:10.350Z,19.73
2018-12-06T05:23:37.746Z,19.53
2018-12-06T05:26:05.196Z,18.53
2018-12-06T05:28:32.718Z,18.67
2018-12-06T05:31:00.208Z,18.23
2018-12-06T05:33:27.645Z,17.97
2018-12-06T05:35:55.077Z,17.00
2018-12-06T05:38:22.495Z,16.87
2018-12-06T05:40:49.991Z,16.50
2018-12-06T05:43:17.554Z,15.27
2018-12-06T05:45:46.005Z,15.60
2018-12-06T05:48:13.498Z,13.60
2018-12-06T05:50:41.181Z,14.23
2018-12-06T05:53:08.777Z,13.10
2018-12-06T05:55:36.249Z,12.73
2018-12-06T05:58:03.705Z,12.57
2018-12-06T06:00:31.190Z,11.57
2018-12-06T06:02:58.642Z,10.90
2018-12-06T06:05:26.148Z,12.50
2018-12-06T06:07:53.552Z,11.30
2018-12-06T06:10:20.965Z,11.60
2018-12-06T06:12:48.390Z,10.70
2018-12-06T06:15:15.766Z,11.37
2018-12-06T06:17:43.173Z,11.67
2018-12-06T06:20:10.710Z,10.70
2018-12-06T06:22:38.164Z,11.37
2018-12-06T06:25:06.260Z,10.83
2018-12-06T06:27:33.698Z,11.20
2018-12-06T06:30:01.723Z,10.13
2018-12-06T06:32:29.156Z,10.33
2018-12-06T06:34:56.539Z,9.77
2018-12-06T06:37:24.593Z,9.57
2018-12-06T06:39:52.099Z,10.03
2018-12-06T06:42:19.551Z,10.00
2018-12-06T06:44:47.083Z,9.60
2018-12-06T06:47:14.691Z,9.70
2018-12-06T06:49:42.397Z,8.70
2018-12-06T06:52:09.857Z,8.33
2018-12-06T06:54:37.408Z,8.00
2018-12-06T06:57:04.857Z,7.40
2018-12-06T06:59:32.290Z,7.20
2018-12-06T07:02:00.395Z,6.90
2018-12-06T07:04:28.313Z,6.33
2018-12-06T07:06:56.239Z,6.63
2018-12-06T07:09:23.996Z,5.90
2018-12-06T07:11:51.856Z,5.30
2018-12-06T07:14:19.399Z,4.63
2018-12-06T07:16:48.522Z,4.73
2018-12-06T07:19:16.147Z,4.30
2018-12-06T07:21:43.702Z,4.30
2018-12-06T07:24:11.446Z,3.80
2018-12-06T07:26:38.915Z,3.27
2018-12-06T07:29:06.601Z,2.73
2018-12-06T07:31:34.053Z,3.83
2018-12-06T07:34:01.535Z,3.00
2018-12-06T07:36:28.982Z,3.50
2018-12-06T07:38:56.634Z,3.13
2018-12-06T07:41:24.018Z,3.07
2018-12-06T07:43:52.694Z,3.07
2018-12-06T07:46:20.206Z,3.10
2018-12-06T07:48:47.999Z,3.53
2018-12-06T07:51:15.453Z,3.17
2018-12-06T07:53:44.050Z,3.80
2018-12-06T07:56:12.312Z,3.70
2018-12-06T07:58:39.781Z,3.63
2018-12-06T08:01:07.332Z,3.30
2018-12-06T08:03:34.745Z,3.20
2018-12-06T08:06:02.240Z,3.33
2018-12-06T08:08:29.697Z,2.93
2018-12-06T08:10:57.187Z,2.73
2018-12-06T08:13:24.642Z,3.10
2018-12-06T08:15:52.282Z,3.10
2018-12-06T08:18:19.710Z,3.43
2018-12-06T08:20:47.601Z,3.13
2018-12-06T08:23:15.772Z,3.40
2018-12-06T08:25:43.264Z,3.40
2018-12-06T08:28:11.981Z,4.23
2018-12-06T08:30:39.468Z,3.87
2018-12-06T08:33:06.965Z,4.10
2018-12-06T08:35:34.466Z,4.43
2018-12-06T08:38:01.900Z,4.60
2018-12-06T08:40:29.418Z,5.30
2018-12-06T08:42:56.871Z,4.53
2018-12-06T08:45:24.581Z,4.63
2018-12-06T08:47:52.157Z,5.10
2018-12-06T08:50:21.207Z,4.63
2018-12-06T08:52:48.915Z,4.67
2018-12-06T08:55:17.512Z,3.73
2018-12-06T08:57:45.118Z,4.17
2018-12-06T09:00:12.547Z,4.63
2018-12-06T09:02:40.162Z,4.50
2018-12-06T09:05:07.842Z,4.63
2018-12-06T09:07:35.727Z,4.43
2018-12-06T09:10:03.464Z,4.53
2018-12-06T09:12:30.933Z,4.40
2018-12-06T09:15:00.064Z,3.93
2018-12-06T09:17:27.606Z,3.97
2018-12-06T09:19:55.218Z,3.27
2018-12-06T09:22:24.419Z,3.97
2018-12-06T09:24:52.071Z,3.30
2018-12-06T09:27:19.565Z,3.77
2018-12-06T09:29:47.069Z,3.20
2018-12-06T09:32:15.152Z,3.23
2018-12-06T09:34:42.770Z,3.00
2018-12-06T09:37:10.431Z,3.10
2018-12-06T09:39:37.899Z,3.23
2018-12-06T09:42:05.469Z,3.27
2018-12-06T09:44:32.944Z,3.90
2018-12-06T09:47:00.482Z,3.70
2018-12-06T09:49:28.016Z,3.70
2018-12-06T09:51:55.479Z,3.93
2018-12-06T09:54:23.002Z,3.87
2018-12-06T09:57:23.324Z,3.60
2018-12-06T09:59:50.851Z,4.03
2018-12-06T10:02:18.327Z,3.53
2018-12-06T10:04:45.794Z,4.40
2018-12-06T10:07:13.426Z,4.30
2018-12-06T10:09:41.015Z,4.40
2018-12-06T10:12:08.434Z,4.87
2018-12-06T10:14:35.948Z,4.70
2018-12-06T10:17:03.437Z,5.23
2018-12-06T10:19:30.964Z,4.80
2018-12-06T10:21:59.084Z,5.10
2018-12-06T10:24:26.619Z,4.30
2018-12-06T10:26:54.474Z,5.00
2018-12-06T10:29:22.040Z,4.03
2018-12-06T10:31:51.290Z,4.70
2018-12-06T10:34:18.761Z,4.37
2018-12-06T10:36:47.220Z,5.33
2018-12-06T10:39:14.799Z,4.20
2018-12-06T10:41:42.421Z,5.10
2018-12-06T10:44:10.754Z,4.90
2018-12-06T10:46:38.207Z,4.53
2018-12-06T10:49:05.679Z,4.43
2018-12-06T10:51:48.838Z,5.57
2018-12-06T10:54:16.469Z,5.10
2018-12-06T10:56:43.996Z,5.03
2018-12-06T10:59:11.568Z,4.77
2018-12-06T11:01:44.353Z,4.67
2018-12-06T11:04:11.802Z,4.23
2018-12-06T11:06:39.370Z,4.17
2018-12-06T11:09:07.549Z,4.30
2018-12-06T11:11:35.007Z,3.87
2018-12-06T11:14:02.565Z,5.30
2018-12-06T11:16:29.989Z,4.20
2018-12-06T11:18:57.590Z,4.13
2018-12-06T11:21:25.153Z,3.27
2018-12-06T11:23:52.608Z,3.60
2018-12-06T11:26:20.105Z,3.83
2018-12-06T11:28:47.632Z,3.97
2018-12-06T11:31:15.124Z,4.07
2018-12-06T11:33:42.561Z,4.30
2018-12-06T11:36:10.075Z,4.60
2018-12-06T11:38:37.541Z,4.00
2018-12-06T11:41:05.099Z,4.07
2018-12-06T11:43:32.585Z,4.50
2018-12-06T11:46:00.005Z,4.67
2018-12-06T11:48:27.563Z,4.60
2018-12-06T11:50:55.060Z,4.10
2018-12-06T11:53:22.594Z,4.50
2018-12-06T11:56:24.549Z,4.23
2018-12-06T11:58:52.002Z,4.37
2018-12-06T12:01:23.278Z,4.40
2018-12-06T12:03:50.740Z,4.20
2018-12-06T12:06:18.230Z,4.80
2018-12-06T12:08:45.939Z,4.13
2018-12-06T12:11:14.048Z,4.13
2018-12-06T12:13:41.627Z,4.17
2018-12-06T12:16:09.220Z,4.23
2018-12-06T12:18:36.790Z,4.07
2018-12-06T12:21:04.315Z,4.67
2018-12-06T12:23:31.721Z,5.30
2018-12-06T12:25:59.188Z,4.73
2018-12-06T12:28:26.737Z,4.60
2018-12-06T12:30:54.269Z,5.07
2018-12-06T12:33:21.810Z,4.50
2018-12-06T12:35:49.273Z,4.40
2018-12-06T12:38:16.873Z,4.13
2018-12-06T12:40:44.363Z,4.30
2018-12-06T12:43:12.573Z,4.60
2018-12-06T12:45:40.006Z,5.00
2018-12-06T12:48:07.460Z,5.17
2018-12-06T12:50:34.942Z,4.80
2018-12-06T12:53:02.391Z,4.90
2018-12-06T12:55:29.918Z,5.73
2018-12-06T12:57:57.339Z,5.53
2018-12-06T13:00:24.814Z,5.50
2018-12-06T13:02:52.313Z,5.43
2018-12-06T13:05:19.860Z,5.30
2018-12-06T13:07:47.390Z,5.50
2018-12-06T13:10:14.808Z,4.47
2018-12-06T13:12:42.190Z,5.03
2018-12-06T13:15:09.574Z,5.47
2018-12-06T13:17:37.039Z,5.63
2018-12-06T13:20:04.564Z,6.00
2018-12-06T13:22:31.983Z,5.77
2018-12-06T13:24:59.443Z,5.10
2018-12-06T13:27:26.826Z,5.03
2018-12-06T13:29:54.393Z,5.37
2018-12-06T13:32:21.918Z,5.20
2018-12-06T13:34:49.545Z,5.33
2018-12-06T13:37:17.195Z,4.40
2018-12-06T13:39:44.666Z,5.20
2018-12-06T13:42:12.158Z,5.13
2018-12-06T13:44:39.724Z,5.07
2018-12-06T13:47:07.209Z,5.20
2018-12-06T13:49:34.701Z,5.03
2018-12-06T13:52:02.265Z,5.13
2018-12-06T13:54:29.802Z,5.30
2018-12-06T13:56:57.400Z,4.73
2018-12-06T13:59:24.918Z,3.97
2018-12-06T14:01:52.520Z,4.30
2018-12-06T14:04:19.976Z,4.70
2018-12-06T14:06:47.472Z,4.07
2018-12-06T14:09:14.938Z,3.67
2018-12-06T14:11:42.418Z,3.47
2018-12-06T14:14:09.860Z,2.87
2018-12-06T14:16:37.274Z,2.87
2018-12-06T14:19:04.764Z,2.90
2018-12-06T14:21:32.263Z,2.53
2018-12-06T14:23:59.756Z,2.87
2018-12-06T14:26:27.155Z,2.57
2018-12-06T14:28:54.688Z,2.50
2018-12-06T14:31:22.227Z,2.67
2018-12-06T14:33:49.651Z,2.70
2018-12-06T14:36:17.078Z,2.47
2018-12-06T14:38:44.523Z,2.50
2018-12-06T14:41:12.075Z,2.80
2018-12-06T14:43:39.540Z,2.63
2018-12-06T14:46:06.947Z,2.67
2018-12-06T14:48:34.535Z,2.73
2018-12-06T14:51:01.920Z,2.80
2018-12-06T14:53:29.563Z,2.70
2018-12-06T14:55:57.049Z,2.53
2018-12-06T14:58:24.601Z,2.70
2018-12-06T15:00:52.035Z,2.27
2018-12-06T15:03:19.594Z,2.40
2018-12-06T15:05:47.056Z,2.03
2018-12-06T15:08:15.422Z,1.87
2018-12-06T15:10:42.899Z,1.70
2018-12-06T15:13:10.522Z,1.90
2018-12-06T15:15:38.033Z,2.40
2018-12-06T15:18:05.508Z,2.30
2018-12-06T15:20:33.023Z,2.10
2018-12-06T15:23:00.484Z,2.17
2018-12-06T15:25:28.003Z,1.63
2018-12-06T15:27:55.824Z,1.90
2018-12-06T15:30:23.249Z,2.10
2018-12-06T15:32:50.663Z,2.33
2018-12-06T15:35:18.122Z,2.20
2018-12-06T15:37:45.604Z,2.67
2018-12-06T15:40:13.113Z,2.50
2018-12-06T15:42:40.598Z,2.10
2018-12-06T15:45:08.171Z,2.60
2018-12-06T15:47:35.714Z,2.83
2018-12-06T15:50:04.215Z,2.90
2018-12-06T15:52:31.684Z,2.70
2018-12-06T15:54:59.187Z,2.80
2018-12-06T15:57:39.862Z,2.80
2018-12-06T16:00:09.527Z,3.20
2018-12-06T16:02:37.118Z,3.00
2018-12-06T16:05:04.747Z,2.90
2018-12-06T16:07:32.381Z,3.00
2018-12-06T16:10:00.243Z,3.20
2018-12-06T16:12:28.104Z,3.40
2018-12-06T16:14:55.785Z,3.23
2018-12-06T16:17:23.381Z,3.40
2018-12-06T16:19:50.936Z,4.17
2018-12-06T16:22:18.393Z,3.23
2018-12-06T16:24:46.006Z,3.17
2018-12-06T16:27:13.470Z,3.00
2018-12-06T16:29:40.931Z,3.17
2018-12-06T16:32:08.538Z,4.30
2018-12-06T16:34:35.989Z,4.33
2018-12-06T16:37:03.486Z,4.57
2018-12-06T16:39:31.019Z,4.97
2018-12-06T16:41:58.520Z,4.53
2018-12-06T16:44:26.053Z,3.73
2018-12-06T16:46:53.652Z,3.43
2018-12-06T16:49:21.184Z,3.37
2018-12-06T16:51:48.860Z,3.20
2018-12-06T16:54:16.472Z,3.40
2018-12-06T16:56:44.159Z,3.97
2018-12-06T16:59:11.747Z,4.43
2018-12-06T17:01:39.302Z,4.20
2018-12-06T17:04:07.232Z,3.83
2018-12-06T17:06:34.987Z,3.87
2018-12-06T17:09:04.496Z,4.20
2018-12-06T17:11:32.060Z,4.27
2018-12-06T17:14:00.257Z,4.40
2018-12-06T17:16:27.740Z,5.00
2018-12-06T17:18:55.195Z,4.43
2018-12-06T17:21:22.683Z,4.30
2018-12-06T17:23:50.178Z,4.13
2018-12-06T17:26:17.667Z,4.07
2018-12-06T17:28:45.199Z,4.20
2018-12-06T17:31:12.607Z,4.27
2018-12-06T17:33:40.395Z,3.97
2018-12-06T17:36:08.088Z,4.57
2018-12-06T17:38:35.531Z,4.90
2018-12-06T17:41:03.262Z,4.43
2018-12-06T17:43:30.776Z,4.53
2018-12-06T17:45:58.251Z,4.00
2018-12-06T17:48:26.111Z,3.90
2018-12-06T17:50:54.069Z,4.37
2018-12-06T17:53:22.578Z,4.00
2018-12-06T17:55:52.443Z,2.67
2018-12-06T17:58:20.924Z,2.83
2018-12-06T18:00:48.908Z,2.60
2018-12-06T18:03:16.528Z,2.87
2018-12-06T18:05:44.567Z,3.30
2018-12-06T18:08:11.987Z,2.90
2018-12-06T18:10:39.777Z,3.30
2018-12-06T18:13:07.444Z,3.63
2018-12-06T18:15:35.071Z,3.03
2018-12-06T18:18:02.608Z,3.13
2018-12-06T18:20:30.226Z,3.27
2018-12-06T18:22:57.788Z,3.10
2018-12-06T18:25:25.317Z,3.10
2018-12-06T18:27:52.957Z,2.17
2018-12-06T18:30:21.259Z,2.20
2018-12-06T18:32:48.794Z,2.47
2018-12-06T18:35:16.380Z,2.07
2018-12-06T18:37:45.596Z,1.77
2018-12-06T18:40:13.449Z,1.47
2018-12-06T18:42:41.198Z,1.93
2018-12-06T18:45:10.540Z,1.53
2018-12-06T18:47:37.999Z,2.27
2018-12-06T18:50:05.804Z,1.53
2018-12-06T18:52:33.738Z,1.67
2018-12-06T18:55:01.432Z,1.70
2018-12-06T18:57:30.119Z,2.33
2018-12-06T18:59:57.883Z,2.20
2018-12-06T19:02:26.236Z,2.53
2018-12-06T19:04:53.912Z,2.57
2018-12-06T19:07:22.830Z,2.87
2018-12-06T19:09:50.823Z,2.63
2018-12-06T19:12:18.909Z,2.43
2018-12-06T19:14:46.451Z,2.80
2018-12-06T19:17:14.930Z,2.50
2018-12-06T19:19:43.909Z,3.10
2018-12-06T19:22:11.819Z,2.80
2018-12-06T19:24:39.734Z,3.47
2018-12-06T19:27:07.767Z,3.90
2018-12-06T19:29:35.321Z,4.20
2018-12-06T19:32:02.819Z,4.67
2018-12-06T19:34:30.594Z,4.17
2018-12-06T19:36:58.715Z,5.03
2018-12-06T19:39:26.459Z,4.67
2018-12-06T19:41:54.110Z,4.93
2018-12-06T19:44:21.903Z,5.30
2018-12-06T19:46:49.476Z,5.10
2018-12-06T19:49:17.308Z,4.73
2018-12-06T19:51:44.895Z,4.97
2018-12-06T19:54:12.610Z,5.40
2018-12-06T19:56:40.364Z,5.73
2018-12-06T19:59:08.253Z,5.77
2018-12-06T20:01:35.698Z,5.10
2018-12-06T20:04:03.159Z,4.43
2018-12-06T20:06:30.963Z,4.70
2018-12-06T20:08:58.961Z,4.67
2018-12-06T20:11:26.486Z,5.77
2018-12-06T20:13:53.974Z,6.20
2018-12-06T20:16:21.544Z,4.97
2018-12-06T20:18:49.295Z,5.00
2018-12-06T20:21:17.151Z,5.43
2018-12-06T20:23:44.829Z,5.47
2018-12-06T20:26:12.605Z,6.10
2018-12-06T20:28:40.506Z,5.50
2018-12-06T20:31:08.299Z,5.80
2018-12-06T20:33:35.851Z,5.50
2018-12-06T20:36:03.305Z,5.90
2018-12-06T20:38:30.739Z,4.97
2018-12-06T20:40:58.223Z,6.57
2018-12-06T20:43:29.908Z,6.37
2018-12-06T20:45:57.336Z,6.30
2018-12-06T20:48:24.818Z,6.50
2018-12-06T20:50:52.314Z,7.07
2018-12-06T20:53:19.867Z,6.37
2018-12-06T20:55:47.350Z,6.73
2018-12-06T20:58:15.406Z,6.30
2018-12-06T21:00:43.120Z,6.53
2018-12-06T21:03:10.612Z,6.20
2018-12-06T21:05:38.082Z,6.10
2018-12-06T21:08:06.423Z,5.90
2018-12-06T21:10:33.977Z,6.53
2018-12-06T21:13:01.439Z,6.43
2018-12-06T21:15:28.932Z,7.00
2018-12-06T21:17:57.094Z,5.73
2018-12-06T21:20:24.540Z,6.80
2018-12-06T21:22:51.984Z,7.60
2018-12-06T21:25:19.608Z,6.20
2018-12-06T21:27:47.157Z,6.30
2018-12-06T21:30:14.606Z,5.40
2018-12-06T21:32:42.096Z,6.10
2018-12-06T21:35:09.593Z,5.90
2018-12-06T21:37:37.231Z,5.93
2018-12-06T21:40:05.774Z,5.40
2018-12-06T21:42:33.442Z,4.80
2018-12-06T21:45:00.896Z,4.43
2018-12-06T21:47:28.344Z,4.40
2018-12-06T21:49:55.882Z,4.80
2018-12-06T21:52:23.374Z,5.23
2018-12-06T21:54:51.035Z,4.10
2018-12-06T21:57:18.494Z,4.63
2018-12-06T21:59:45.950Z,4.47
2018-12-06T22:02:19.039Z,4.03
2018-12-06T22:04:47.284Z,4.63
2018-12-06T22:07:14.794Z,4.07
2018-12-06T22:09:43.013Z,4.33
2018-12-06T22:12:10.542Z,3.73
2018-12-06T22:14:37.985Z,3.73
2018-12-06T22:17:06.078Z,3.70
2018-12-06T22:19:33.508Z,3.40
2018-12-06T22:22:08.111Z,4.37
2018-12-06T22:24:35.818Z,3.77
2018-12-06T22:27:03.272Z,3.53
2018-12-06T22:29:30.768Z,4.03
2018-12-06T22:31:58.251Z,3.77
2018-12-06T22:34:26.000Z,3.60
2018-12-06T22:36:53.497Z,3.10
2018-12-06T22:39:20.964Z,4.13
2018-12-06T22:41:48.377Z,2.97
2018-12-06T22:44:15.872Z,3.40
2018-12-06T22:46:43.392Z,2.87
2018-12-06T22:49:10.842Z,3.17
2018-12-06T22:51:38.296Z,2.73
2018-12-06T22:54:06.575Z,3.40
2018-12-06T22:56:34.729Z,3.53
2018-12-06T22:59:02.318Z,3.40
2018-12-06T23:01:35.997Z,3.50
2018-12-06T23:04:05.799Z,3.63
2018-12-06T23:06:33.225Z,3.70
2018-12-06T23:09:00.613Z,3.83
2018-12-06T23:11:28.614Z,3.60
2018-12-06T23:13:56.673Z,3.67
2018-12-06T23:16:24.082Z,3.63
2018-12-06T23:18:51.757Z,3.77
2018-12-06T23:21:19.230Z,4.27
2018-12-06T23:23:46.669Z,3.90
2018-12-06T23:26:14.118Z,3.90
2018-12-06T23:29:05.372Z,4.10
2018-12-06T23:31:32.841Z,4.83
2018-12-06T23:34:01.440Z,5.23
2018-12-06T23:36:28.987Z,5.27
2018-12-06T23:38:56.400Z,5.40
2018-12-06T23:41:24.187Z,6.33
2018-12-06T23:43:52.684Z,6.53
2018-12-06T23:46:20.080Z,7.47
2018-12-06T23:48:47.612Z,6.27
2018-12-06T23:51:20.639Z,7.03
2018-12-06T23:53:48.093Z,6.70
2018-12-06T23:56:15.552Z,6.80
2018-12-06T23:58:43.146Z,6.90
